Time;durP1;ratioP1;P1;durP2;ratioP2;P2;SDS_P1;SDS_P2;PMS_P1;PMS_P2;Temp;Humidity;BMP_temperature;BMP_pressure;BME280_temperature;BME280_humidity;BME280_pressure;Samples;Min_cycle;Max_cycle;Signal;HPM_P1;HPM_P2
2023/12/01 00:01:48;;;;;;;115.63;36.15;;;;;;;-0.49;100.00;100024.50;5013797;28;20038;-73
2023/12/01 00:04:13;;;;;;;127.57;36.45;;;;;;;-0.48;100.00;100030.41;5007198;28;20519;-73
2023/12/01 00:06:39;;;;;;;108.70;33.05;;;;;;;-0.53;100.00;100035.00;5007554;28;20415;-73
2023/12/01 00:09:04;;;;;;;106.65;34.42;;;;;;;-0.51;100.00;100035.69;5001061;28;20038;-74
2023/12/01 00:11:30;;;;;;;101.38;32.45;;;;;;;-0.55;100.00;100040.19;5001306;28;20492;-73
2023/12/01 00:13:55;;;;;;;107.18;33.17;;;;;;;-0.55;100.00;100041.91;5009214;28;20029;-72
2023/12/01 00:16:20;;;;;;;96.88;31.25;;;;;;;-0.61;100.00;100032.97;5004983;28;20034;-73
2023/12/01 00:18:46;;;;;;;109.22;35.38;;;;;;;-0.65;100.00;100049.38;5007807;28;20033;-73
2023/12/01 00:21:11;;;;;;;116.32;33.92;;;;;;;-0.65;100.00;100049.38;5011160;28;20034;-73
2023/12/01 00:23:37;;;;;;;112.75;33.75;;;;;;;-0.66;100.00;100056.19;5013342;28;20530;-74
2023/12/01 00:26:02;;;;;;;112.35;35.70;;;;;;;-0.61;100.00;100049.03;5004871;28;20516;-73
2023/12/01 00:28:28;;;;;;;117.38;34.17;;;;;;;-0.58;100.00;100060.78;5012059;28;20132;-74
2023/12/01 00:30:53;;;;;;;104.45;34.25;;;;;;;-0.61;100.00;100056.69;5011925;28;20037;-73
2023/12/01 00:33:19;;;;;;;107.00;33.50;;;;;;;-0.61;100.00;100064.31;4991893;28;20063;-72
2023/12/01 00:35:44;;;;;;;112.30;33.25;;;;;;;-0.57;100.00;100062.38;4994066;28;20049;-73
2023/12/01 00:38:09;;;;;;;123.22;37.03;;;;;;;-0.53;100.00;100071.44;5014734;28;20041;-72
2023/12/01 00:40:36;;;;;;;123.72;35.55;;;;;;;-0.53;100.00;100071.44;5000412;28;20045;-72
2023/12/01 00:43:01;;;;;;;123.55;38.15;;;;;;;-0.51;100.00;100073.91;5014922;28;20038;-73
2023/12/01 00:45:27;;;;;;;114.65;35.92;;;;;;;-0.49;100.00;100079.72;5007523;28;20045;-73
2023/12/01 00:47:52;;;;;;;125.13;37.80;;;;;;;-0.46;100.00;100076.97;5012531;28;20033;-73
2023/12/01 00:50:18;;;;;;;124.05;37.05;;;;;;;-0.50;100.00;100078.09;5011644;28;20037;-73
2023/12/01 00:52:44;;;;;;;120.45;36.80;;;;;;;-0.50;100.00;100076.34;5008872;28;20681;-73
2023/12/01 00:55:09;;;;;;;129.02;37.47;;;;;;;-0.57;100.00;100080.22;5012774;28;20041;-73
2023/12/01 00:57:34;;;;;;;124.63;39.10;;;;;;;-0.56;100.00;100081.88;4997264;28;20036;-73
2023/12/01 01:00:00;;;;;;;115.80;38.35;;;;;;;-0.64;100.00;100086.63;5012737;28;20053;-73
2023/12/01 01:02:26;;;;;;;119.80;38.17;;;;;;;-0.66;100.00;100086.75;5010883;28;20034;-73
2023/12/01 01:04:51;;;;;;;118.85;35.92;;;;;;;-0.65;100.00;100083.28;4995020;28;20041;-73
2023/12/01 01:07:17;;;;;;;109.15;34.95;;;;;;;-0.64;100.00;100084.91;5009045;28;20591;-73
2023/12/01 01:09:42;;;;;;;115.03;35.88;;;;;;;-0.59;100.00;100079.50;5015472;28;20621;-73
2023/12/01 01:12:08;;;;;;;110.50;33.80;;;;;;;-0.61;100.00;100089.78;5011539;28;20040;-73
2023/12/01 01:14:33;;;;;;;107.13;35.35;;;;;;;-0.55;100.00;100093.66;5009572;28;20033;-74
2023/12/01 01:16:58;;;;;;;114.00;35.08;;;;;;;-0.57;100.00;100095.50;5013700;28;20080;-73
2023/12/01 01:19:24;;;;;;;113.38;35.97;;;;;;;-0.55;100.00;100095.41;5015295;28;20030;-73
2023/12/01 01:21:50;;;;;;;98.15;35.40;;;;;;;-0.55;100.00;100092.84;5012626;28;20664;-73
2023/12/01 01:24:15;;;;;;;118.25;35.28;;;;;;;-0.56;100.00;100091.25;5018311;28;20026;-73
2023/12/01 01:26:41;;;;;;;104.75;34.10;;;;;;;-0.57;100.00;100095.50;5011058;28;20041;-73
2023/12/01 01:29:06;;;;;;;104.45;33.67;;;;;;;-0.55;100.00;100092.84;5016266;28;20063;-73
2023/12/01 01:31:32;;;;;;;107.22;34.33;;;;;;;-0.56;100.00;100094.59;5014283;28;20041;-73
2023/12/01 01:33:57;;;;;;;111.50;36.13;;;;;;;-0.53;100.00;100098.66;5011297;28;20053;-73
2023/12/01 01:36:23;;;;;;;116.50;38.10;;;;;;;-0.56;100.00;100091.25;5016916;28;20029;-73
2023/12/01 01:38:49;;;;;;;109.13;34.03;;;;;;;-0.54;100.00;100097.06;5010001;28;20033;-73
2023/12/01 01:41:15;;;;;;;106.32;33.67;;;;;;;-0.52;100.00;100090.13;5016233;28;20137;-73
2023/12/01 01:43:40;;;;;;;116.68;37.00;;;;;;;-0.49;100.00;100092.44;5007865;28;20123;-73
2023/12/01 01:46:09;;;;;;;112.13;36.75;;;;;;;-0.52;100.00;100097.75;5007421;28;20030;-73
2023/12/01 01:48:35;;;;;;;105.00;33.55;;;;;;;-0.52;100.00;100087.56;5011862;28;20107;-73
2023/12/01 01:51:02;;;;;;;117.15;35.60;;;;;;;-0.50;100.00;100083.19;5010102;28;20451;-73
2023/12/01 01:53:29;;;;;;;119.82;37.78;;;;;;;-0.57;100.00;100092.16;5010277;28;20033;-73
2023/12/01 01:55:58;;;;;;;110.63;35.22;;;;;;;-0.62;100.00;100093.28;4993579;28;20510;-73
2023/12/01 01:58:27;;;;;;;109.53;35.50;;;;;;;-0.59;100.00;100094.78;5013839;28;20029;-73
2023/12/01 02:00:53;;;;;;;116.03;36.70;;;;;;;-0.53;100.00;100098.66;5011427;28;20034;-73
2023/12/01 02:03:20;;;;;;;116.07;37.55;;;;;;;-0.54;100.00;100095.31;5010420;28;20026;-73
2023/12/01 02:05:47;;;;;;;125.80;38.05;;;;;;;-0.52;100.00;100096.03;5011911;28;20495;-73
2023/12/01 02:08:24;;;;;;;116.68;37.35;;;;;;;-0.50;100.00;100108.66;5014989;28;20030;-73
2023/12/01 02:10:54;;;;;;;135.70;37.40;;;;;;;-0.49;100.00;100098.38;5011521;28;20087;-73
2023/12/01 02:13:20;;;;;;;120.88;37.95;;;;;;;-0.53;100.00;100094.38;5013615;28;20038;-73
2023/12/01 02:15:48;;;;;;;125.10;36.67;;;;;;;-0.52;100.00;100095.22;5012892;28;20053;-73
2023/12/01 02:18:27;;;;;;;120.22;35.75;;;;;;;-0.55;100.00;100103.06;5014335;28;20060;-74
2023/12/01 02:20:56;;;;;;;118.57;37.40;;;;;;;-0.54;100.00;100102.94;5011239;28;20035;-73
2023/12/01 02:23:22;;;;;;;124.90;37.35;;;;;;;-0.53;100.00;100103.75;5009007;28;20139;-73
2023/12/01 02:25:48;;;;;;;108.03;34.45;;;;;;;-0.51;100.00;100107.00;5009756;28;20049;-72
2023/12/01 02:28:14;;;;;;;119.93;38.33;;;;;;;-0.52;100.00;100101.13;5013758;28;20522;-73
2023/12/01 02:30:42;;;;;;;116.18;37.42;;;;;;;-0.50;100.00;100099.28;5005994;28;20462;-73
2023/12/01 02:33:07;;;;;;;112.22;34.53;;;;;;;-0.49;100.00;100106.03;4999959;28;20567;-73
2023/12/01 02:35:34;;;;;;;124.68;37.90;;;;;;;-0.47;100.00;100106.72;4993622;28;20033;-72
2023/12/01 02:38:00;;;;;;;105.88;34.47;;;;;;;-0.44;100.00;100101.41;5006198;28;20030;-73
2023/12/01 02:40:27;;;;;;;115.70;37.15;;;;;;;-0.35;100.00;100094.91;5010246;28;20184;-73
2023/12/01 02:42:53;;;;;;;115.90;37.03;;;;;;;-0.38;100.00;100105.28;5009029;28;20046;-73
2023/12/01 02:45:21;;;;;;;105.05;33.45;;;;;;;-0.42;100.00;100098.78;5008760;28;20042;-73
2023/12/01 02:47:49;;;;;;;119.13;35.50;;;;;;;-0.43;100.00;100099.69;5011241;28;20037;-73
2023/12/01 02:50:18;;;;;;;111.43;35.42;;;;;;;-0.46;100.00;100102.44;4994889;28;21434;-73
2023/12/01 02:52:44;;;;;;;109.68;36.05;;;;;;;-0.46;100.00;100093.06;5007679;28;20037;-73
2023/12/01 02:55:11;;;;;;;117.40;36.17;;;;;;;-0.49;100.00;100090.72;5009176;28;20065;-74
2023/12/01 02:57:39;;;;;;;102.68;34.42;;;;;;;-0.56;100.00;100088.69;5010096;28;20034;-74
2023/12/01 03:00:08;;;;;;;114.32;35.00;;;;;;;-0.53;100.00;100089.28;5010054;28;20515;-73
2023/12/01 03:02:34;;;;;;;104.82;33.90;;;;;;;-0.51;100.00;100095.13;5015650;28;20111;-73
2023/12/01 03:04:59;;;;;;;118.35;35.65;;;;;;;-0.48;100.00;100091.53;5010411;28;20121;-73
2023/12/01 03:07:25;;;;;;;116.07;34.88;;;;;;;-0.52;100.00;100085.84;4992695;28;20045;-73
2023/12/01 03:09:50;;;;;;;110.03;34.53;;;;;;;-0.52;100.00;100082.47;5010852;28;20042;-72
2023/12/01 03:12:16;;;;;;;117.22;34.97;;;;;;;-0.50;100.00;100095.94;5010227;28;20584;-73
2023/12/01 03:14:41;;;;;;;114.32;36.95;;;;;;;-0.43;100.00;100095.41;5008529;28;20044;-73
2023/12/01 03:17:07;;;;;;;118.70;35.20;;;;;;;-0.47;100.00;100098.25;5008600;28;20129;-73
2023/12/01 03:19:32;;;;;;;118.15;35.85;;;;;;;-0.49;100.00;100095.81;4991604;28;20030;-72
2023/12/01 03:21:57;;;;;;;107.05;34.20;;;;;;;-0.49;100.00;100095.81;5014228;28;20087;-74
2023/12/01 03:24:23;;;;;;;97.05;33.97;;;;;;;-0.46;100.00;100097.34;5011326;28;20038;-73
2023/12/01 03:26:48;;;;;;;103.63;35.40;;;;;;;-0.48;100.00;100102.53;5011281;28;20037;-73
2023/12/01 03:29:14;;;;;;;108.35;34.65;;;;;;;-0.46;100.00;100102.44;5010468;28;20525;-73
2023/12/01 03:31:40;;;;;;;102.93;35.53;;;;;;;-0.44;100.00;100103.16;5012331;28;20444;-74
2023/12/01 03:34:06;;;;;;;109.80;35.45;;;;;;;-0.44;100.00;100108.25;5022190;28;20034;-73
2023/12/01 03:36:31;;;;;;;109.38;37.60;;;;;;;-0.41;100.00;100108.06;5013038;28;20049;-73
2023/12/01 03:38:57;;;;;;;114.70;35.60;;;;;;;-0.49;100.00;100107.72;4994129;28;20038;-73
2023/12/01 03:41:22;;;;;;;105.32;33.35;;;;;;;-0.47;100.00;100109.28;5012217;28;21346;-73
2023/12/01 03:43:48;;;;;;;107.45;33.60;;;;;;;-0.50;100.00;100106.13;4995179;28;20431;-73
2023/12/01 03:46:13;;;;;;;109.47;36.75;;;;;;;-0.54;100.00;100112.34;5006788;28;20100;-73
2023/12/01 03:48:39;;;;;;;97.35;33.92;;;;;;;-0.49;100.00;100116.22;5013580;28;20026;-73
2023/12/01 03:51:05;;;;;;;112.65;36.63;;;;;;;-0.40;100.00;100113.06;5013413;28;20519;-72
2023/12/01 03:53:33;;;;;;;98.35;33.15;;;;;;;-0.41;100.00;100113.16;5006178;28;20454;-73
2023/12/01 03:55:58;;;;;;;97.93;32.72;;;;;;;-0.30;100.00;100113.25;5011018;28;20069;-73
2023/12/01 03:58:24;;;;;;;101.82;34.58;;;;;;;-0.35;100.00;100112.72;4997574;28;20041;-73
2023/12/01 04:00:52;;;;;;;102.85;34.00;;;;;;;-0.35;100.00;100117.03;5015508;28;20038;-73
2023/12/01 04:03:18;;;;;;;99.65;33.40;;;;;;;-0.38;100.00;100118.03;5018276;28;20598;-73
2023/12/01 04:05:43;;;;;;;95.07;33.85;;;;;;;-0.36;100.00;100116.19;5012529;28;20127;-72
2023/12/01 04:08:09;;;;;;;101.20;35.08;;;;;;;-0.36;100.00;100123.03;5009048;28;20596;-73
2023/12/01 04:10:34;;;;;;;101.82;33.22;;;;;;;-0.33;100.00;100131.28;5020344;28;20493;-73
2023/12/01 04:13:07;;;;;;;96.38;31.77;;;;;;;-0.35;100.00;100132.31;5015087;28;20076;-73
2023/12/01 04:15:34;;;;;;;90.50;30.67;;;;;;;-0.35;100.00;100135.66;5009510;28;20034;-73
2023/12/01 04:18:09;;;;;;;92.35;32.38;;;;;;;-0.34;100.00;100137.31;5015396;28;20107;-72
2023/12/01 04:20:38;;;;;;;84.68;30.63;;;;;;;-0.35;100.00;100142.50;5009164;28;20104;-73
2023/12/01 04:23:11;;;;;;;90.20;32.35;;;;;;;-0.35;100.00;100145.06;5016844;28;20091;-73
2023/12/01 04:25:39;;;;;;;84.38;31.08;;;;;;;-0.37;100.00;100142.59;5018803;28;20029;-73
2023/12/01 04:28:06;;;;;;;88.95;33.10;;;;;;;-0.40;100.00;100143.63;5014585;28;20064;-73
2023/12/01 04:30:31;;;;;;;96.40;33.00;;;;;;;-0.40;100.00;100150.44;5016636;28;20045;-73
2023/12/01 04:32:59;;;;;;;88.35;31.38;;;;;;;-0.40;100.00;100145.34;5024125;28;20131;-72
2023/12/01 04:35:32;;;;;;;94.10;32.58;;;;;;;-0.38;100.00;100153.69;5008516;28;20629;-74
2023/12/01 04:37:59;;;;;;;;;;;;;;;-0.33;100.00;100150.84;5013760;28;20045;-73
2023/12/01 04:40:29;;;;;;;95.07;31.10;;;;;;;-0.34;100.00;100151.75;5008971;28;19922;-74
2023/12/01 04:42:55;;;;;;;101.05;33.28;;;;;;;-0.35;100.00;100158.59;5011857;28;20491;-73
2023/12/01 04:45:24;;;;;;;89.35;30.02;;;;;;;-0.34;100.00;100154.31;5014532;28;21328;-73
2023/12/01 04:47:50;;;;;;;92.45;31.73;;;;;;;-0.32;100.00;100158.41;5018618;28;20419;-73
2023/12/01 04:50:21;;;;;;;90.45;30.17;;;;;;;-0.33;100.00;100156.75;5013950;28;20025;-73
2023/12/01 04:52:49;;;;;;;94.63;32.17;;;;;;;-0.34;100.00;100157.69;5014318;28;20029;-73
2023/12/01 04:55:16;;;;;;;86.65;32.05;;;;;;;-0.33;100.00;100158.50;5015989;28;20374;-72
2023/12/01 04:57:42;;;;;;;88.25;30.45;;;;;;;-0.35;100.00;100163.69;5014151;28;20034;-74
2023/12/01 05:00:19;;;;;;;87.03;30.23;;;;;;;-0.36;100.00;100162.03;5012026;28;20131;-73
2023/12/01 05:02:50;;;;;;;88.85;32.85;;;;;;;-0.32;100.00;100163.50;5009853;28;20048;-73
2023/12/01 05:05:18;;;;;;;95.88;31.70;;;;;;;-0.30;100.00;100168.47;5009941;28;20580;-73
2023/12/01 05:07:43;;;;;;;91.03;32.80;;;;;;;-0.32;100.00;100158.41;5033511;28;20044;-73
2023/12/01 05:10:14;;;;;;;92.18;31.50;;;;;;;-0.31;100.00;100162.56;5015794;28;20057;-73
2023/12/01 05:12:50;;;;;;;97.63;33.42;;;;;;;-0.26;100.00;100173.28;5014589;28;20055;-73
2023/12/01 05:15:20;;;;;;;92.47;31.33;;;;;;;-0.28;100.00;100176.84;5030679;28;20432;-73
2023/12/01 05:17:48;;;;;;;92.35;31.23;;;;;;;-0.28;100.00;100176.84;4997832;28;20066;-73
2023/12/01 05:20:18;;;;;;;89.07;31.55;;;;;;;-0.21;100.00;100180.59;5010359;28;20037;-73
2023/12/01 05:22:51;;;;;;;83.75;30.80;;;;;;;-0.25;100.00;100184.28;5011673;28;20095;-73
2023/12/01 05:25:18;;;;;;;85.93;29.95;;;;;;;-0.26;100.00;100182.66;5009537;28;20051;-72
2023/12/01 05:27:45;;;;;;;100.72;33.60;;;;;;;-0.26;100.00;100187.75;5012982;28;20489;-74
2023/12/01 05:30:12;;;;;;;92.05;30.17;;;;;;;-0.22;100.00;100182.34;5019118;28;20030;-73
2023/12/01 05:32:39;;;;;;;91.03;31.33;;;;;;;-0.25;100.00;100189.38;5011497;28;20923;-73
2023/12/01 05:35:10;;;;;;;91.90;30.75;;;;;;;-0.28;100.00;100192.94;5014786;28;20037;-73
2023/12/01 05:37:39;;;;;;;95.00;31.48;;;;;;;-0.27;100.00;100188.66;5010973;28;20048;-72
2023/12/01 05:40:08;;;;;;;87.68;30.67;;;;;;;-0.25;100.00;100192.72;5009550;28;20050;-72
2023/12/01 05:42:34;;;;;;;82.30;29.60;;;;;;;-0.26;100.00;100185.22;5012611;28;20065;-72
2023/12/01 05:45:00;;;;;;;87.88;30.63;;;;;;;-0.29;100.00;100193.84;5008716;28;20057;-72
2023/12/01 05:47:25;;;;;;;86.97;31.10;;;;;;;-0.28;100.00;100202.34;5014294;28;20025;-73
2023/12/01 05:49:51;;;;;;;90.40;31.25;;;;;;;-0.29;100.00;100198.94;5009104;28;20037;-73
2023/12/01 05:52:16;;;;;;;87.55;30.23;;;;;;;-0.29;100.00;100198.94;5015033;28;20037;-73
2023/12/01 05:54:42;;;;;;;83.68;29.80;;;;;;;-0.27;100.00;100203.94;5011089;28;20040;-72
2023/12/01 05:57:07;;;;;;;79.82;29.02;;;;;;;-0.27;100.00;100202.22;5012731;28;20048;-73
2023/12/01 05:59:33;;;;;;;89.15;30.83;;;;;;;-0.26;100.00;100203.84;5011325;28;20489;-73
2023/12/01 06:01:59;;;;;;;89.07;29.60;;;;;;;-0.23;100.00;100207.94;5009257;28;20477;-73
2023/12/01 06:04:25;;;;;;;89.15;30.55;;;;;;;-0.23;100.00;100215.56;5010169;28;20028;-74
2023/12/01 06:06:51;;;;;;;92.80;32.15;;;;;;;-0.23;100.00;100213.03;5009276;28;20046;-73
2023/12/01 06:09:17;;;;;;;85.25;29.75;;;;;;;-0.27;100.00;100219.25;5011348;28;20053;-73
2023/12/01 06:11:44;;;;;;;83.18;28.77;;;;;;;-0.26;100.00;100215.78;5022449;28;20041;-73
2023/12/01 06:14:09;;;;;;;88.40;31.20;;;;;;;-0.27;100.00;100216.69;5007238;28;20116;-73
2023/12/01 06:16:35;;;;;;;86.72;32.92;;;;;;;-0.23;100.00;100228.31;5007637;28;20038;-72
2023/12/01 06:19:00;;;;;;;80.25;29.25;;;;;;;-0.27;100.00;100220.06;5013096;28;20036;-73
2023/12/01 06:21:26;;;;;;;85.20;29.95;;;;;;;-0.28;100.00;100226.09;5011326;28;20129;-73
2023/12/01 06:23:51;;;;;;;83.25;31.27;;;;;;;-0.23;100.00;100228.31;5008380;28;20048;-73
2023/12/01 06:26:16;;;;;;;86.93;29.90;;;;;;;-0.26;100.00;100226.78;5008424;28;20036;-72
2023/12/01 06:28:42;;;;;;;87.60;31.30;;;;;;;-0.26;100.00;100223.44;5012969;28;20038;-73
2023/12/01 06:31:07;;;;;;;84.03;29.52;;;;;;;-0.26;100.00;100231.88;4993889;28;20057;-73
2023/12/01 06:33:33;;;;;;;80.05;27.77;;;;;;;-0.21;100.00;100231.56;5011062;28;20029;-72
2023/12/01 06:35:58;;;;;;;79.38;27.20;;;;;;;-0.28;100.00;100231.19;5006834;28;20365;-72
2023/12/01 06:38:24;;;;;;;72.78;27.27;;;;;;;-0.28;100.00;100235.47;5011211;28;20535;-73
2023/12/01 06:40:50;;;;;;;73.60;26.45;;;;;;;-0.29;100.00;100233.81;5011497;28;20724;-73
2023/12/01 06:43:15;;;;;;;72.10;26.73;;;;;;;-0.29;100.00;100237.19;5013790;28;20115;-72
2023/12/01 06:45:41;;;;;;;74.88;25.05;;;;;;;-0.26;100.00;100241.28;5009454;28;20030;-72
2023/12/01 06:48:07;;;;;;;65.47;24.30;;;;;;;-0.27;100.00;100237.09;5009878;28;20042;-72
2023/12/01 06:50:33;;;;;;;67.13;25.35;;;;;;;-0.26;100.00;100244.63;5009372;28;20048;-73
2023/12/01 06:52:59;;;;;;;67.20;23.95;;;;;;;-0.27;100.00;100244.72;5010243;28;20033;-73
2023/12/01 06:55:24;;;;;;;70.53;26.13;;;;;;;-0.28;100.00;100248.22;5008093;28;20121;-73
2023/12/01 06:57:50;;;;;;;67.78;24.52;;;;;;;-0.27;100.00;100247.28;5009143;28;20080;-72
2023/12/01 07:00:29;;;;;;;69.45;26.00;;;;;;;-0.25;100.00;100248.78;5010089;28;20040;-72
2023/12/01 07:03:03;;;;;;;80.05;26.98;;;;;;;-0.26;100.00;100254.00;4993339;28;20493;-73
2023/12/01 07:05:31;;;;;;;78.10;27.90;;;;;;;-0.25;100.00;100253.88;5004994;28;20061;-71
2023/12/01 07:07:58;;;;;;;71.75;26.98;;;;;;;-0.25;100.00;100259.00;5011809;28;20030;-72
2023/12/01 07:10:24;;;;;;;72.28;26.67;;;;;;;-0.21;100.00;100264.72;5011835;28;21179;-72
2023/12/01 07:12:50;;;;;;;71.90;26.45;;;;;;;-0.23;100.00;100264.84;5008197;28;20087;-72
2023/12/01 07:15:20;;;;;;;65.47;24.38;;;;;;;-0.25;100.00;100265.81;5012337;28;20038;-72
2023/12/01 07:17:54;;;;;;;70.18;23.73;;;;;;;-0.25;100.00;100273.47;5010590;28;20068;-72
2023/12/01 07:20:21;;;;;;;67.90;23.98;;;;;;;-0.27;100.00;100267.66;5010468;28;20065;-72
2023/12/01 07:22:48;;;;;;;70.07;24.60;;;;;;;-0.27;100.00;100276.13;5014159;28;20037;-72
2023/12/01 07:25:25;;;;;;;69.18;26.35;;;;;;;-0.25;100.00;100274.28;5007175;28;20034;-73
2023/12/01 07:28:01;;;;;;;68.68;24.65;;;;;;;-0.27;100.00;100271.00;5030295;28;20056;-72
2023/12/01 07:30:30;;;;;;;70.00;25.55;;;;;;;-0.27;100.00;100272.75;5021617;28;20395;-71
2023/12/01 07:32:57;;;;;;;63.42;24.25;;;;;;;-0.28;100.00;100274.50;5011920;28;20116;-72
2023/12/01 07:35:22;;;;;;;69.97;26.63;;;;;;;-0.28;100.00;100266.84;5008905;28;20043;-72
2023/12/01 07:37:51;;;;;;;67.72;24.90;;;;;;;-0.27;100.00;100272.75;5007181;28;20033;-73
2023/12/01 07:40:20;;;;;;;104.53;35.92;;;;;;;-0.25;100.00;100274.28;5007303;28;20056;-72
2023/12/01 07:42:50;;;;;;;86.65;29.75;;;;;;;-0.26;100.00;100275.22;5011523;28;20040;-72
2023/12/01 07:45:19;;;;;;;81.72;28.55;;;;;;;-0.23;100.00;100269.94;5003485;28;20532;-73
2023/12/01 07:47:50;;;;;;;77.88;27.52;;;;;;;-0.15;100.00;100271.97;5009073;28;20038;-72
2023/12/01 07:50:17;;;;;;;77.10;29.58;;;;;;;-0.13;100.00;100279.50;5004992;28;20124;-72
2023/12/01 07:52:47;;;;;;;85.47;29.80;;;;;;;-0.14;100.00;100271.03;5011869;28;20030;-73
2023/12/01 07:55:12;;;;;;;80.28;28.67;;;;;;;-0.13;100.00;100276.94;5007888;28;20125;-72
2023/12/01 07:57:38;;;;;;;81.97;29.17;;;;;;;-0.16;100.00;100275.44;5008197;28;20165;-75
2023/12/01 08:00:14;;;;;;;74.90;28.13;;;;;;;-0.15;100.00;100286.44;5000944;28;20512;-73
2023/12/01 08:02:41;;;;;;;69.88;25.25;;;;;;;-0.15;100.00;100289.81;4991217;28;20040;-73
2023/12/01 08:05:13;;;;;;;68.97;24.42;;;;;;;-0.10;100.00;100281.84;5012775;28;20037;-73
2023/12/01 08:07:43;;;;;;;70.85;24.73;;;;;;;-0.13;100.00;100293.09;5007635;28;20040;-74
2023/12/01 08:10:09;;;;;;;66.38;25.67;;;;;;;-0.13;100.00;100294.78;5016256;28;20045;-73
2023/12/01 08:12:35;;;;;;;59.90;23.33;;;;;;;-0.19;100.00;100290.91;5007266;28;20058;-73
2023/12/01 08:15:00;;;;;;;59.25;22.30;;;;;;;-0.23;100.00;100297.97;5012743;28;20466;-73
2023/12/01 08:17:26;;;;;;;47.85;18.73;;;;;;;-0.18;100.00;100299.38;5009527;28;20037;-72
2023/12/01 08:19:51;;;;;;;42.92;16.77;;;;;;;-0.16;100.00;100298.38;5009007;28;20046;-74
2023/12/01 08:22:17;;;;;;;41.55;16.60;;;;;;;-0.21;100.00;100308.03;5013094;28;20038;-72
2023/12/01 08:24:42;;;;;;;40.90;16.70;;;;;;;-0.20;100.00;100305.38;5007841;28;24091;-73
2023/12/01 08:27:08;;;;;;;38.33;16.00;;;;;;;-0.23;100.00;100303.06;5012261;28;20034;-73
2023/12/01 08:29:33;;;;;;;36.95;15.25;;;;;;;-0.21;100.00;100306.31;5008437;28;20033;-74
2023/12/01 08:32:00;;;;;;;34.47;14.35;;;;;;;-0.15;100.00;100302.56;5010912;28;20041;-72
2023/12/01 08:34:25;;;;;;;32.45;14.27;;;;;;;-0.26;100.00;100318.53;5005412;28;20038;-73
2023/12/01 08:36:51;;;;;;;32.38;13.63;;;;;;;-0.21;100.00;100316.50;5008667;28;20029;-73
2023/12/01 08:39:16;;;;;;;30.42;12.82;;;;;;;-0.21;100.00;100321.63;5014337;28;20035;-73
2023/12/01 08:41:42;;;;;;;30.25;13.52;;;;;;;-0.22;100.00;100324.25;5007075;28;20037;-73
2023/12/01 08:44:07;;;;;;;30.85;14.20;;;;;;;-0.27;100.00;100324.53;5011051;28;20037;-73
2023/12/01 08:46:33;;;;;;;25.98;13.00;;;;;;;-0.26;100.00;100323.63;5014686;28;20404;-72
2023/12/01 08:48:58;;;;;;;30.65;13.35;;;;;;;-0.25;100.00;100330.34;5012693;28;20025;-73
2023/12/01 08:51:24;;;;;;;27.88;13.23;;;;;;;-0.28;100.00;100338.19;5008490;28;20034;-72
2023/12/01 08:53:49;;;;;;;29.30;12.55;;;;;;;-0.20;100.00;100332.63;5014118;28;20091;-72
2023/12/01 08:56:14;;;;;;;26.85;12.63;;;;;;;-0.24;100.00;100338.84;5006897;28;20038;-73
2023/12/01 08:58:40;;;;;;;28.17;12.18;;;;;;;-0.16;100.00;100333.25;5009864;28;20034;-72
2023/12/01 09:01:06;;;;;;;26.92;11.85;;;;;;;-0.18;100.00;100343.53;5019130;28;20107;-73
2023/12/01 09:03:31;;;;;;;30.02;13.07;;;;;;;-0.15;100.00;100347.59;5008828;28;20080;-72
2023/12/01 09:05:57;;;;;;;31.88;13.25;;;;;;;-0.21;100.00;100349.66;4991815;28;20382;-73
2023/12/01 09:08:22;;;;;;;40.28;14.60;;;;;;;-0.24;100.00;100354.13;5012406;28;20512;-73
2023/12/01 09:10:47;;;;;;;33.58;14.05;;;;;;;-0.26;100.00;100351.66;5007987;28;20440;-73
2023/12/01 09:13:13;;;;;;;39.95;15.70;;;;;;;-0.27;100.00;100349.19;5006793;28;20034;-73
2023/12/01 09:15:38;;;;;;;42.90;14.85;;;;;;;-0.24;100.00;100344.72;5010373;28;20034;-73
2023/12/01 09:18:04;;;;;;;37.53;15.20;;;;;;;-0.18;100.00;100348.63;5007339;28;20037;-73
2023/12/01 09:20:29;;;;;;;41.20;15.88;;;;;;;-0.23;100.00;100348.94;5009873;28;20049;-73
2023/12/01 09:22:55;;;;;;;41.10;14.57;;;;;;;-0.22;100.00;100357.38;4989655;28;20045;-73
2023/12/01 09:25:20;;;;;;;38.65;14.15;;;;;;;-0.17;100.00;100357.09;5011936;28;20045;-73
2023/12/01 09:27:47;;;;;;;35.90;14.52;;;;;;;-0.18;100.00;100358.81;5008631;28;20029;-73
2023/12/01 09:30:16;;;;;;;36.22;14.15;;;;;;;-0.16;100.00;100367.19;5008718;28;20497;-73
2023/12/01 09:32:45;;;;;;;36.88;14.32;;;;;;;-0.10;100.00;100366.78;5010944;28;20030;-73
2023/12/01 09:35:11;;;;;;;41.88;15.18;;;;;;;-0.08;100.00;100374.34;5017517;28;20060;-74
2023/12/01 09:37:36;;;;;;;40.20;14.40;;;;;;;-0.08;100.00;100374.34;5007030;28;20025;-74
2023/12/01 09:40:03;;;;;;;38.13;14.30;;;;;;;-0.11;100.00;100372.81;5010591;28;20547;-73
2023/12/01 09:42:32;;;;;;;40.45;15.60;;;;;;;-0.09;100.00;100383.72;5007344;28;20068;-73
2023/12/01 09:45:00;;;;;;;37.22;14.75;;;;;;;-0.08;100.00;100384.53;5010223;28;20049;-73
2023/12/01 09:47:32;;;;;;;37.53;15.60;;;;;;;-0.13;100.00;100387.38;5012560;28;20034;-72
2023/12/01 09:49:58;;;;;;;34.65;13.65;;;;;;;-0.13;100.00;100387.38;5010423;28;20181;-73
2023/12/01 09:52:23;;;;;;;43.40;15.80;;;;;;;-0.21;100.00;100385.34;5009322;28;20117;-73
2023/12/01 09:54:49;;;;;;;40.40;14.52;;;;;;;-0.11;100.00;100384.75;5008889;28;20132;-73
2023/12/01 09:57:16;;;;;;;39.25;15.80;;;;;;;-0.21;100.00;100380.22;5012584;28;20046;-73
2023/12/01 09:59:43;;;;;;;35.08;14.38;;;;;;;-0.26;100.00;100387.34;5015402;28;20029;-72
2023/12/01 10:02:09;;;;;;;38.30;15.77;;;;;;;-0.27;100.00;100389.97;5008367;28;20393;-73
2023/12/01 10:04:35;;;;;;;34.80;15.30;;;;;;;-0.26;100.00;100389.06;5015184;28;20045;-72
2023/12/01 10:07:03;;;;;;;36.42;15.18;;;;;;;-0.22;100.00;100390.50;5010998;28;20038;-72
2023/12/01 10:09:32;;;;;;;36.97;15.23;;;;;;;-0.16;100.00;100390.13;5008629;28;20036;-72
2023/12/01 10:12:09;;;;;;;37.35;15.63;;;;;;;-0.22;100.00;100398.16;5009886;28;20034;-74
2023/12/01 10:14:41;;;;;;;41.00;16.52;;;;;;;-0.28;100.00;100386.63;5026290;28;20050;-72
2023/12/01 10:17:07;;;;;;;36.63;14.00;;;;;;;-0.34;100.00;100394.66;5005563;28;20037;-72
2023/12/01 10:19:42;;;;;;;39.42;15.05;;;;;;;-0.41;100.00;100391.66;5005459;28;20444;-72
2023/12/01 10:22:07;;;;;;;38.15;14.07;;;;;;;-0.32;100.00;100387.72;5004653;28;20624;-72
2023/12/01 10:24:33;;;;;;;37.83;13.85;;;;;;;-0.29;100.00;100399.44;5008242;28;20038;-72
2023/12/01 10:27:02;;;;;;;34.67;13.80;;;;;;;-0.34;100.00;100392.09;5014254;28;20041;-73
2023/12/01 10:29:30;;;;;;;31.58;12.00;;;;;;;-0.47;100.00;100403.94;5011088;28;20116;-72
2023/12/01 10:32:00;;;;;;;38.22;14.15;;;;;;;-0.47;100.00;100392.03;5007371;28;20132;-72
2023/12/01 10:34:26;;;;;;;81.75;27.67;;;;;;;-0.51;100.00;100390.59;5011618;28;20090;-72
2023/12/01 10:36:52;;;;;;;37.50;15.20;;;;;;;-0.48;100.00;100394.69;5009816;28;20037;-73
2023/12/01 10:39:21;;;;;;;27.58;11.50;;;;;;;-0.53;100.00;100392.41;5006968;28;20041;-71
2023/12/01 10:41:47;;;;;;;35.05;11.02;;;;;;;-0.43;100.00;100400.31;5004196;28;20040;-72
2023/12/01 10:44:18;;;;;;;24.40;11.20;;;;;;;-0.37;100.00;100402.47;5009339;28;20033;-72
2023/12/01 10:46:47;;;;;;;26.20;12.05;;;;;;;-0.32;100.00;100392.81;5001068;28;20416;-72
2023/12/01 10:49:17;;;;;;;31.58;14.05;;;;;;;-0.29;100.00;100396.91;5004093;28;20037;-72
2023/12/01 10:51:46;;;;;;;30.95;13.48;;;;;;;-0.38;100.00;100398.28;5008636;28;20041;-73
2023/12/01 10:54:13;;;;;;;28.48;12.57;;;;;;;-0.40;100.00;100398.41;5007199;28;20037;-72
2023/12/01 10:57:14;;;;;;;29.02;12.18;;;;;;;-0.31;100.00;100393.63;5007294;28;20038;-72
2023/12/01 10:59:45;;;;;;;34.92;12.23;;;;;;;-0.28;100.00;100389.16;5021745;28;20404;-72